sensor_id;sensor_type;location;lat;lon;timestamp;P1;durP1;ratioP1;P2;durP2;ratioP2
65009;SDS011;51556;50.002;22.014;2022-12-07T00:00:27;6.20;;;3.20;;
65009;SDS011;51556;50.002;22.014;2022-12-07T00:02:52;5.60;;;3.60;;
65009;SDS011;51556;50.002;22.014;2022-12-07T00:05:17;6.10;;;3.20;;
65009;SDS011;51556;50.002;22.014;2022-12-07T00:07:43;6.90;;;3.90;;
65009;SDS011;51556;50.002;22.014;2022-12-07T00:10:08;4.80;;;3.10;;
65009;SDS011;51556;50.002;22.014;2022-12-07T00:12:33;5.70;;;3.30;;
65009;SDS011;51556;50.002;22.014;2022-12-07T00:14:59;6.30;;;3.90;;
65009;SDS011;51556;50.002;22.014;2022-12-07T00:17:24;5.50;;;3.80;;
65009;SDS011;51556;50.002;22.014;2022-12-07T00:19:50;6.20;;;3.60;;
65009;SDS011;51556;50.002;22.014;2022-12-07T00:22:15;8.10;;;4.00;;
65009;SDS011;51556;50.002;22.014;2022-12-07T00:24:40;5.50;;;2.80;;
65009;SDS011;51556;50.002;22.014;2022-12-07T00:27:06;4.50;;;2.80;;
65009;SDS011;51556;50.002;22.014;2022-12-07T00:29:31;5.10;;;3.20;;
65009;SDS011;51556;50.002;22.014;2022-12-07T00:31:56;6.20;;;3.50;;
65009;SDS011;51556;50.002;22.014;2022-12-07T00:34:22;5.30;;;2.80;;
65009;SDS011;51556;50.002;22.014;2022-12-07T00:36:47;6.20;;;3.60;;
65009;SDS011;51556;50.002;22.014;2022-12-07T00:39:13;5.10;;;3.40;;
65009;SDS011;51556;50.002;22.014;2022-12-07T00:41:39;5.80;;;3.60;;
65009;SDS011;51556;50.002;22.014;2022-12-07T00:44:05;7.50;;;3.80;;
65009;SDS011;51556;50.002;22.014;2022-12-07T00:46:30;6.30;;;3.30;;
65009;SDS011;51556;50.002;22.014;2022-12-07T00:48:56;7.60;;;5.00;;
65009;SDS011;51556;50.002;22.014;2022-12-07T00:51:23;5.40;;;2.90;;
65009;SDS011;51556;50.002;22.014;2022-12-07T00:53:50;5.60;;;3.50;;
65009;SDS011;51556;50.002;22.014;2022-12-07T00:56:17;5.90;;;3.40;;
65009;SDS011;51556;50.002;22.014;2022-12-07T00:58:54;6.40;;;3.30;;
65009;SDS011;51556;50.002;22.014;2022-12-07T01:01:21;6.40;;;3.60;;
65009;SDS011;51556;50.002;22.014;2022-12-07T01:03:47;4.50;;;3.00;;
65009;SDS011;51556;50.002;22.014;2022-12-07T01:06:14;5.90;;;3.80;;
65009;SDS011;51556;50.002;22.014;2022-12-07T01:08:41;4.90;;;3.00;;
65009;SDS011;51556;50.002;22.014;2022-12-07T01:11:07;5.00;;;2.60;;
65009;SDS011;51556;50.002;22.014;2022-12-07T01:13:35;5.10;;;3.00;;
65009;SDS011;51556;50.002;22.014;2022-12-07T01:16:01;4.90;;;2.70;;
65009;SDS011;51556;50.002;22.014;2022-12-07T01:18:29;5.30;;;3.40;;
65009;SDS011;51556;50.002;22.014;2022-12-07T01:20:57;5.70;;;3.20;;
65009;SDS011;51556;50.002;22.014;2022-12-07T01:23:34;6.70;;;3.30;;
65009;SDS011;51556;50.002;22.014;2022-12-07T01:26:01;5.30;;;2.80;;
65009;SDS011;51556;50.002;22.014;2022-12-07T01:28:29;9.20;;;3.90;;
65009;SDS011;51556;50.002;22.014;2022-12-07T01:33:32;4.70;;;3.00;;
65009;SDS011;51556;50.002;22.014;2022-12-07T01:36:23;6.50;;;3.70;;
65009;SDS011;51556;50.002;22.014;2022-12-07T01:38:58;7.10;;;3.40;;
65009;SDS011;51556;50.002;22.014;2022-12-07T01:41:26;7.20;;;3.50;;
65009;SDS011;51556;50.002;22.014;2022-12-07T01:46:53;6.20;;;3.70;;
65009;SDS011;51556;50.002;22.014;2022-12-07T01:49:26;4.60;;;2.90;;
65009;SDS011;51556;50.002;22.014;2022-12-07T01:54:39;6.50;;;3.60;;
65009;SDS011;51556;50.002;22.014;2022-12-07T01:57:06;6.10;;;3.60;;
65009;SDS011;51556;50.002;22.014;2022-12-07T01:59:34;5.70;;;3.20;;
65009;SDS011;51556;50.002;22.014;2022-12-07T02:02:00;7.00;;;4.10;;
65009;SDS011;51556;50.002;22.014;2022-12-07T02:04:29;8.30;;;3.20;;
65009;SDS011;51556;50.002;22.014;2022-12-07T02:06:54;5.50;;;3.70;;
65009;SDS011;51556;50.002;22.014;2022-12-07T02:09:20;7.50;;;4.30;;
65009;SDS011;51556;50.002;22.014;2022-12-07T02:11:45;6.60;;;3.60;;
65009;SDS011;51556;50.002;22.014;2022-12-07T02:14:11;7.00;;;3.70;;
65009;SDS011;51556;50.002;22.014;2022-12-07T02:22:40;8.70;;;4.20;;
65009;SDS011;51556;50.002;22.014;2022-12-07T02:28:19;6.20;;;3.70;;
65009;SDS011;51556;50.002;22.014;2022-12-07T02:30:51;6.10;;;3.50;;
65009;SDS011;51556;50.002;22.014;2022-12-07T02:33:23;5.20;;;3.20;;
65009;SDS011;51556;50.002;22.014;2022-12-07T02:41:27;6.40;;;3.50;;
65009;SDS011;51556;50.002;22.014;2022-12-07T02:43:59;5.60;;;3.20;;
65009;SDS011;51556;50.002;22.014;2022-12-07T02:46:29;5.60;;;3.70;;
65009;SDS011;51556;50.002;22.014;2022-12-07T02:51:24;7.40;;;3.90;;
65009;SDS011;51556;50.002;22.014;2022-12-07T02:53:50;5.80;;;3.50;;
65009;SDS011;51556;50.002;22.014;2022-12-07T02:56:39;6.50;;;3.90;;
65009;SDS011;51556;50.002;22.014;2022-12-07T03:02:23;6.50;;;3.60;;
65009;SDS011;51556;50.002;22.014;2022-12-07T03:08:04;6.90;;;3.80;;
65009;SDS011;51556;50.002;22.014;2022-12-07T03:16:33;6.40;;;4.00;;
65009;SDS011;51556;50.002;22.014;2022-12-07T03:19:11;7.00;;;3.80;;
65009;SDS011;51556;50.002;22.014;2022-12-07T03:21:44;7.70;;;4.10;;
65009;SDS011;51556;50.002;22.014;2022-12-07T03:24:17;7.20;;;3.80;;
65009;SDS011;51556;50.002;22.014;2022-12-07T03:26:50;7.20;;;3.60;;
65009;SDS011;51556;50.002;22.014;2022-12-07T03:29:28;7.40;;;4.00;;
65009;SDS011;51556;50.002;22.014;2022-12-07T03:32:13;8.50;;;4.20;;
65009;SDS011;51556;50.002;22.014;2022-12-07T03:37:34;6.10;;;3.60;;
65009;SDS011;51556;50.002;22.014;2022-12-07T03:40:18;7.10;;;3.40;;
65009;SDS011;51556;50.002;22.014;2022-12-07T03:42:50;8.00;;;3.40;;
65009;SDS011;51556;50.002;22.014;2022-12-07T03:45:17;7.70;;;3.30;;
65009;SDS011;51556;50.002;22.014;2022-12-07T03:48:26;4.60;;;3.20;;
65009;SDS011;51556;50.002;22.014;2022-12-07T03:50:34;5.50;;;3.70;;
65009;SDS011;51556;50.002;22.014;2022-12-07T03:53:13;7.50;;;4.20;;
65009;SDS011;51556;50.002;22.014;2022-12-07T03:55:44;7.40;;;3.50;;
65009;SDS011;51556;50.002;22.014;2022-12-07T03:58:16;5.90;;;3.40;;
65009;SDS011;51556;50.002;22.014;2022-12-07T04:00:44;6.90;;;4.10;;
65009;SDS011;51556;50.002;22.014;2022-12-07T04:03:10;5.60;;;3.20;;
65009;SDS011;51556;50.002;22.014;2022-12-07T04:05:37;5.00;;;3.50;;
65009;SDS011;51556;50.002;22.014;2022-12-07T04:08:04;6.20;;;3.30;;
65009;SDS011;51556;50.002;22.014;2022-12-07T04:10:29;5.50;;;3.20;;
65009;SDS011;51556;50.002;22.014;2022-12-07T04:12:55;4.70;;;3.40;;
65009;SDS011;51556;50.002;22.014;2022-12-07T04:15:20;7.90;;;4.10;;
65009;SDS011;51556;50.002;22.014;2022-12-07T04:17:46;6.70;;;4.00;;
65009;SDS011;51556;50.002;22.014;2022-12-07T04:20:12;7.20;;;3.60;;
65009;SDS011;51556;50.002;22.014;2022-12-07T04:22:37;6.40;;;3.60;;
65009;SDS011;51556;50.002;22.014;2022-12-07T04:25:03;5.50;;;3.50;;
65009;SDS011;51556;50.002;22.014;2022-12-07T04:27:29;5.70;;;2.80;;
65009;SDS011;51556;50.002;22.014;2022-12-07T04:29:54;7.00;;;3.40;;
65009;SDS011;51556;50.002;22.014;2022-12-07T04:32:20;7.10;;;3.60;;
65009;SDS011;51556;50.002;22.014;2022-12-07T04:34:46;7.20;;;3.80;;
65009;SDS011;51556;50.002;22.014;2022-12-07T04:37:12;5.20;;;3.20;;
65009;SDS011;51556;50.002;22.014;2022-12-07T04:39:37;7.40;;;3.40;;
65009;SDS011;51556;50.002;22.014;2022-12-07T04:42:02;5.80;;;3.60;;
65009;SDS011;51556;50.002;22.014;2022-12-07T04:44:28;4.40;;;3.00;;
65009;SDS011;51556;50.002;22.014;2022-12-07T04:46:54;6.40;;;3.60;;
65009;SDS011;51556;50.002;22.014;2022-12-07T04:49:20;6.20;;;3.50;;
65009;SDS011;51556;50.002;22.014;2022-12-07T04:51:46;5.60;;;3.20;;
65009;SDS011;51556;50.002;22.014;2022-12-07T04:54:13;7.20;;;3.70;;
65009;SDS011;51556;50.002;22.014;2022-12-07T04:56:39;8.80;;;4.20;;
65009;SDS011;51556;50.002;22.014;2022-12-07T04:59:05;7.50;;;4.30;;
65009;SDS011;51556;50.002;22.014;2022-12-07T05:01:31;6.80;;;3.70;;
65009;SDS011;51556;50.002;22.014;2022-12-07T05:03:56;7.50;;;4.90;;
65009;SDS011;51556;50.002;22.014;2022-12-07T05:06:22;8.90;;;5.00;;
65009;SDS011;51556;50.002;22.014;2022-12-07T05:08:48;12.00;;;5.10;;
65009;SDS011;51556;50.002;22.014;2022-12-07T05:11:13;10.90;;;4.70;;
65009;SDS011;51556;50.002;22.014;2022-12-07T05:14:00;10.30;;;5.20;;
65009;SDS011;51556;50.002;22.014;2022-12-07T05:16:27;10.10;;;4.60;;
65009;SDS011;51556;50.002;22.014;2022-12-07T05:18:53;7.70;;;4.40;;
65009;SDS011;51556;50.002;22.014;2022-12-07T05:21:18;7.10;;;4.10;;
65009;SDS011;51556;50.002;22.014;2022-12-07T05:23:44;8.00;;;3.90;;
65009;SDS011;51556;50.002;22.014;2022-12-07T05:26:09;6.80;;;3.90;;
65009;SDS011;51556;50.002;22.014;2022-12-07T05:28:34;7.50;;;3.90;;
65009;SDS011;51556;50.002;22.014;2022-12-07T05:31:00;6.80;;;3.90;;
65009;SDS011;51556;50.002;22.014;2022-12-07T05:33:25;9.70;;;4.40;;
65009;SDS011;51556;50.002;22.014;2022-12-07T05:35:51;9.60;;;4.70;;
65009;SDS011;51556;50.002;22.014;2022-12-07T05:38:16;8.80;;;5.00;;
65009;SDS011;51556;50.002;22.014;2022-12-07T05:40:41;11.10;;;5.10;;
65009;SDS011;51556;50.002;22.014;2022-12-07T05:43:07;8.70;;;5.80;;
65009;SDS011;51556;50.002;22.014;2022-12-07T05:45:32;7.70;;;4.70;;
65009;SDS011;51556;50.002;22.014;2022-12-07T05:47:58;7.20;;;4.30;;
65009;SDS011;51556;50.002;22.014;2022-12-07T05:50:23;8.20;;;4.10;;
65009;SDS011;51556;50.002;22.014;2022-12-07T05:52:49;8.30;;;4.80;;
65009;SDS011;51556;50.002;22.014;2022-12-07T05:55:14;9.10;;;4.90;;
65009;SDS011;51556;50.002;22.014;2022-12-07T05:57:40;7.80;;;5.20;;
65009;SDS011;51556;50.002;22.014;2022-12-07T06:00:25;8.60;;;4.70;;
65009;SDS011;51556;50.002;22.014;2022-12-07T06:02:50;8.40;;;4.90;;
65009;SDS011;51556;50.002;22.014;2022-12-07T06:05:16;9.20;;;5.00;;
65009;SDS011;51556;50.002;22.014;2022-12-07T06:07:41;7.60;;;4.90;;
65009;SDS011;51556;50.002;22.014;2022-12-07T06:10:07;8.50;;;4.50;;
65009;SDS011;51556;50.002;22.014;2022-12-07T06:12:32;10.10;;;4.20;;
65009;SDS011;51556;50.002;22.014;2022-12-07T06:15:03;6.70;;;3.80;;
65009;SDS011;51556;50.002;22.014;2022-12-07T06:17:29;7.60;;;3.60;;
65009;SDS011;51556;50.002;22.014;2022-12-07T06:19:54;4.80;;;3.60;;
65009;SDS011;51556;50.002;22.014;2022-12-07T06:22:20;7.10;;;3.80;;
65009;SDS011;51556;50.002;22.014;2022-12-07T06:24:45;6.20;;;3.70;;
65009;SDS011;51556;50.002;22.014;2022-12-07T06:27:11;10.30;;;3.80;;
65009;SDS011;51556;50.002;22.014;2022-12-07T06:29:36;7.30;;;3.90;;
65009;SDS011;51556;50.002;22.014;2022-12-07T06:32:02;7.50;;;3.40;;
65009;SDS011;51556;50.002;22.014;2022-12-07T06:34:28;5.20;;;3.00;;
65009;SDS011;51556;50.002;22.014;2022-12-07T06:36:54;6.50;;;2.90;;
65009;SDS011;51556;50.002;22.014;2022-12-07T06:39:21;5.80;;;3.30;;
65009;SDS011;51556;50.002;22.014;2022-12-07T06:41:47;5.00;;;3.00;;
65009;SDS011;51556;50.002;22.014;2022-12-07T06:44:13;4.70;;;3.00;;
65009;SDS011;51556;50.002;22.014;2022-12-07T06:46:39;5.20;;;3.20;;
65009;SDS011;51556;50.002;22.014;2022-12-07T06:49:05;4.20;;;2.80;;
65009;SDS011;51556;50.002;22.014;2022-12-07T06:51:31;6.30;;;3.60;;
65009;SDS011;51556;50.002;22.014;2022-12-07T06:53:57;3.90;;;3.00;;
65009;SDS011;51556;50.002;22.014;2022-12-07T06:56:23;6.40;;;3.90;;
65009;SDS011;51556;50.002;22.014;2022-12-07T06:58:49;4.60;;;3.20;;
65009;SDS011;51556;50.002;22.014;2022-12-07T07:01:15;4.10;;;2.90;;
65009;SDS011;51556;50.002;22.014;2022-12-07T07:03:42;4.10;;;3.20;;
65009;SDS011;51556;50.002;22.014;2022-12-07T07:06:08;4.20;;;3.50;;
65009;SDS011;51556;50.002;22.014;2022-12-07T07:08:35;3.70;;;3.00;;
65009;SDS011;51556;50.002;22.014;2022-12-07T07:11:01;5.50;;;3.80;;
65009;SDS011;51556;50.002;22.014;2022-12-07T07:13:26;6.50;;;3.80;;
65009;SDS011;51556;50.002;22.014;2022-12-07T07:15:52;6.00;;;4.10;;
65009;SDS011;51556;50.002;22.014;2022-12-07T07:18:18;3.70;;;3.00;;
65009;SDS011;51556;50.002;22.014;2022-12-07T07:20:43;5.00;;;3.00;;
65009;SDS011;51556;50.002;22.014;2022-12-07T07:23:09;5.10;;;3.50;;
65009;SDS011;51556;50.002;22.014;2022-12-07T07:25:34;6.70;;;4.40;;
65009;SDS011;51556;50.002;22.014;2022-12-07T07:28:00;4.90;;;3.40;;
65009;SDS011;51556;50.002;22.014;2022-12-07T07:30:26;5.00;;;2.90;;
65009;SDS011;51556;50.002;22.014;2022-12-07T07:32:55;6.10;;;2.80;;
65009;SDS011;51556;50.002;22.014;2022-12-07T07:35:22;4.80;;;3.40;;
65009;SDS011;51556;50.002;22.014;2022-12-07T07:37:47;8.60;;;4.70;;
65009;SDS011;51556;50.002;22.014;2022-12-07T07:40:13;6.30;;;3.80;;
65009;SDS011;51556;50.002;22.014;2022-12-07T07:42:38;5.50;;;3.30;;
65009;SDS011;51556;50.002;22.014;2022-12-07T07:45:04;7.30;;;3.60;;
65009;SDS011;51556;50.002;22.014;2022-12-07T07:47:29;3.20;;;2.80;;
65009;SDS011;51556;50.002;22.014;2022-12-07T07:49:55;6.40;;;3.80;;
65009;SDS011;51556;50.002;22.014;2022-12-07T07:52:22;6.30;;;3.90;;
65009;SDS011;51556;50.002;22.014;2022-12-07T07:54:47;6.00;;;3.70;;
65009;SDS011;51556;50.002;22.014;2022-12-07T07:57:12;10.50;;;4.30;;
65009;SDS011;51556;50.002;22.014;2022-12-07T07:59:38;6.90;;;4.20;;
65009;SDS011;51556;50.002;22.014;2022-12-07T08:02:03;11.60;;;4.80;;
65009;SDS011;51556;50.002;22.014;2022-12-07T08:04:28;9.80;;;5.50;;
65009;SDS011;51556;50.002;22.014;2022-12-07T08:06:54;11.40;;;5.10;;
65009;SDS011;51556;50.002;22.014;2022-12-07T08:09:19;6.60;;;4.40;;
65009;SDS011;51556;50.002;22.014;2022-12-07T08:11:45;10.30;;;4.90;;
65009;SDS011;51556;50.002;22.014;2022-12-07T08:14:10;5.70;;;4.70;;
65009;SDS011;51556;50.002;22.014;2022-12-07T08:16:37;5.90;;;3.90;;
65009;SDS011;51556;50.002;22.014;2022-12-07T08:19:04;6.30;;;4.60;;
65009;SDS011;51556;50.002;22.014;2022-12-07T08:21:30;6.90;;;4.10;;
65009;SDS011;51556;50.002;22.014;2022-12-07T08:23:56;7.00;;;4.40;;
65009;SDS011;51556;50.002;22.014;2022-12-07T08:26:22;14.60;;;4.20;;
65009;SDS011;51556;50.002;22.014;2022-12-07T08:28:47;20.60;;;5.90;;
65009;SDS011;51556;50.002;22.014;2022-12-07T08:31:14;17.40;;;5.80;;
65009;SDS011;51556;50.002;22.014;2022-12-07T08:33:42;7.80;;;4.70;;
65009;SDS011;51556;50.002;22.014;2022-12-07T08:36:09;6.90;;;3.80;;
65009;SDS011;51556;50.002;22.014;2022-12-07T08:38:36;7.50;;;4.90;;
65009;SDS011;51556;50.002;22.014;2022-12-07T08:41:03;5.80;;;3.70;;
65009;SDS011;51556;50.002;22.014;2022-12-07T08:43:29;5.50;;;3.90;;
65009;SDS011;51556;50.002;22.014;2022-12-07T08:46:18;8.10;;;4.60;;
65009;SDS011;51556;50.002;22.014;2022-12-07T08:48:54;7.90;;;4.40;;
65009;SDS011;51556;50.002;22.014;2022-12-07T08:51:24;8.80;;;5.00;;
65009;SDS011;51556;50.002;22.014;2022-12-07T08:53:50;5.10;;;3.90;;
65009;SDS011;51556;50.002;22.014;2022-12-07T08:56:17;6.40;;;4.30;;
65009;SDS011;51556;50.002;22.014;2022-12-07T08:58:44;6.40;;;4.20;;
65009;SDS011;51556;50.002;22.014;2022-12-07T09:01:09;6.60;;;4.80;;
65009;SDS011;51556;50.002;22.014;2022-12-07T09:03:35;6.30;;;4.40;;
65009;SDS011;51556;50.002;22.014;2022-12-07T09:06:00;7.10;;;3.90;;
65009;SDS011;51556;50.002;22.014;2022-12-07T09:08:27;5.60;;;4.20;;
65009;SDS011;51556;50.002;22.014;2022-12-07T09:10:57;6.80;;;4.50;;
65009;SDS011;51556;50.002;22.014;2022-12-07T09:13:23;6.10;;;4.40;;
65009;SDS011;51556;50.002;22.014;2022-12-07T09:15:48;6.00;;;4.00;;
65009;SDS011;51556;50.002;22.014;2022-12-07T09:18:13;8.50;;;5.10;;
65009;SDS011;51556;50.002;22.014;2022-12-07T09:20:39;6.80;;;3.90;;
65009;SDS011;51556;50.002;22.014;2022-12-07T09:23:05;7.10;;;4.40;;
65009;SDS011;51556;50.002;22.014;2022-12-07T09:25:31;7.20;;;4.50;;
65009;SDS011;51556;50.002;22.014;2022-12-07T09:27:58;8.70;;;4.10;;
65009;SDS011;51556;50.002;22.014;2022-12-07T09:30:24;16.60;;;5.90;;
65009;SDS011;51556;50.002;22.014;2022-12-07T09:32:54;8.00;;;3.80;;
65009;SDS011;51556;50.002;22.014;2022-12-07T09:35:21;6.80;;;4.20;;
65009;SDS011;51556;50.002;22.014;2022-12-07T09:37:48;8.70;;;4.30;;
65009;SDS011;51556;50.002;22.014;2022-12-07T09:40:14;8.80;;;4.50;;
65009;SDS011;51556;50.002;22.014;2022-12-07T09:42:42;6.60;;;3.30;;
65009;SDS011;51556;50.002;22.014;2022-12-07T09:45:21;8.00;;;4.70;;
65009;SDS011;51556;50.002;22.014;2022-12-07T09:47:55;6.30;;;4.00;;
65009;SDS011;51556;50.002;22.014;2022-12-07T09:50:23;17.50;;;5.10;;
65009;SDS011;51556;50.002;22.014;2022-12-07T09:52:50;11.50;;;5.70;;
65009;SDS011;51556;50.002;22.014;2022-12-07T09:55:27;8.20;;;4.20;;
65009;SDS011;51556;50.002;22.014;2022-12-07T09:57:54;7.80;;;5.00;;
65009;SDS011;51556;50.002;22.014;2022-12-07T10:00:22;9.10;;;4.60;;
65009;SDS011;51556;50.002;22.014;2022-12-07T10:05:25;8.10;;;3.90;;
65009;SDS011;51556;50.002;22.014;2022-12-07T10:07:55;8.90;;;4.20;;
65009;SDS011;51556;50.002;22.014;2022-12-07T10:10:25;7.10;;;4.30;;
65009;SDS011;51556;50.002;22.014;2022-12-07T10:12:56;8.80;;;5.40;;
65009;SDS011;51556;50.002;22.014;2022-12-07T10:15:38;7.30;;;4.30;;
65009;SDS011;51556;50.002;22.014;2022-12-07T10:18:17;6.50;;;4.10;;
65009;SDS011;51556;50.002;22.014;2022-12-07T10:24:02;5.70;;;3.90;;
65009;SDS011;51556;50.002;22.014;2022-12-07T10:29:14;6.60;;;3.80;;
65009;SDS011;51556;50.002;22.014;2022-12-07T10:31:41;4.70;;;3.40;;
65009;SDS011;51556;50.002;22.014;2022-12-07T10:34:24;4.90;;;3.30;;
65009;SDS011;51556;50.002;22.014;2022-12-07T10:37:06;5.40;;;3.80;;
65009;SDS011;51556;50.002;22.014;2022-12-07T10:39:56;7.10;;;4.50;;
65009;SDS011;51556;50.002;22.014;2022-12-07T10:42:23;6.00;;;3.60;;
65009;SDS011;51556;50.002;22.014;2022-12-07T10:47:38;5.00;;;3.60;;
65009;SDS011;51556;50.002;22.014;2022-12-07T10:50:19;5.60;;;4.00;;
65009;SDS011;51556;50.002;22.014;2022-12-07T10:55:40;5.50;;;4.20;;
65009;SDS011;51556;50.002;22.014;2022-12-07T11:24:19;9.70;;;4.60;;
65009;SDS011;51556;50.002;22.014;2022-12-07T11:35:41;11.20;;;4.80;;
65009;SDS011;51556;50.002;22.014;2022-12-07T11:38:15;9.80;;;3.90;;
65009;SDS011;51556;50.002;22.014;2022-12-07T11:41:02;12.80;;;5.80;;
65009;SDS011;51556;50.002;22.014;2022-12-07T11:44:05;9.60;;;5.40;;
65009;SDS011;51556;50.002;22.014;2022-12-07T11:46:46;7.60;;;3.60;;
65009;SDS011;51556;50.002;22.014;2022-12-07T11:52:16;9.30;;;4.30;;
65009;SDS011;51556;50.002;22.014;2022-12-07T11:55:04;6.70;;;4.60;;
65009;SDS011;51556;50.002;22.014;2022-12-07T11:57:41;7.40;;;4.80;;
65009;SDS011;51556;50.002;22.014;2022-12-07T12:00:12;15.80;;;7.40;;
65009;SDS011;51556;50.002;22.014;2022-12-07T12:02:53;12.20;;;6.30;;
65009;SDS011;51556;50.002;22.014;2022-12-07T12:05:26;9.60;;;4.60;;
65009;SDS011;51556;50.002;22.014;2022-12-07T12:08:03;10.20;;;5.40;;
65009;SDS011;51556;50.002;22.014;2022-12-07T12:10:45;15.20;;;6.50;;
65009;SDS011;51556;50.002;22.014;2022-12-07T12:21:41;11.50;;;6.90;;
65009;SDS011;51556;50.002;22.014;2022-12-07T12:24:16;9.90;;;6.40;;
65009;SDS011;51556;50.002;22.014;2022-12-07T12:26:54;10.00;;;6.50;;
65009;SDS011;51556;50.002;22.014;2022-12-07T12:32:05;17.50;;;8.90;;
65009;SDS011;51556;50.002;22.014;2022-12-07T12:37:40;12.10;;;6.40;;
65009;SDS011;51556;50.002;22.014;2022-12-07T12:47:53;10.00;;;5.50;;
65009;SDS011;51556;50.002;22.014;2022-12-07T12:58:35;11.00;;;6.10;;
65009;SDS011;51556;50.002;22.014;2022-12-07T13:04:12;8.10;;;4.80;;
65009;SDS011;51556;50.002;22.014;2022-12-07T13:06:43;9.30;;;4.50;;
65009;SDS011;51556;50.002;22.014;2022-12-07T13:09:17;12.10;;;5.60;;
65009;SDS011;51556;50.002;22.014;2022-12-07T13:11:48;10.70;;;4.50;;
65009;SDS011;51556;50.002;22.014;2022-12-07T13:17:09;24.10;;;6.30;;
65009;SDS011;51556;50.002;22.014;2022-12-07T13:22:31;12.80;;;5.70;;
65009;SDS011;51556;50.002;22.014;2022-12-07T13:27:33;10.50;;;4.80;;
65009;SDS011;51556;50.002;22.014;2022-12-07T13:30:02;10.50;;;5.30;;
65009;SDS011;51556;50.002;22.014;2022-12-07T13:32:54;7.70;;;4.10;;
65009;SDS011;51556;50.002;22.014;2022-12-07T13:35:31;8.90;;;4.30;;
65009;SDS011;51556;50.002;22.014;2022-12-07T13:37:58;6.70;;;4.00;;
65009;SDS011;51556;50.002;22.014;2022-12-07T13:40:26;9.50;;;4.30;;
65009;SDS011;51556;50.002;22.014;2022-12-07T13:42:58;15.40;;;5.60;;
65009;SDS011;51556;50.002;22.014;2022-12-07T13:50:59;17.70;;;7.60;;
65009;SDS011;51556;50.002;22.014;2022-12-07T13:53:26;47.10;;;9.30;;
65009;SDS011;51556;50.002;22.014;2022-12-07T13:55:58;36.00;;;7.80;;
65009;SDS011;51556;50.002;22.014;2022-12-07T13:58:25;22.20;;;8.00;;
65009;SDS011;51556;50.002;22.014;2022-12-07T14:00:54;16.20;;;6.90;;
65009;SDS011;51556;50.002;22.014;2022-12-07T14:03:28;25.50;;;8.40;;
65009;SDS011;51556;50.002;22.014;2022-12-07T14:06:06;16.30;;;7.70;;
65009;SDS011;51556;50.002;22.014;2022-12-07T14:08:41;14.80;;;8.00;;
65009;SDS011;51556;50.002;22.014;2022-12-07T14:11:07;30.90;;;10.20;;
65009;SDS011;51556;50.002;22.014;2022-12-07T14:14:00;19.90;;;9.70;;
65009;SDS011;51556;50.002;22.014;2022-12-07T14:16:30;19.20;;;8.80;;
65009;SDS011;51556;50.002;22.014;2022-12-07T14:19:01;34.00;;;9.10;;
65009;SDS011;51556;50.002;22.014;2022-12-07T14:21:31;19.80;;;9.10;;
65009;SDS011;51556;50.002;22.014;2022-12-07T14:24:14;28.20;;;10.50;;
65009;SDS011;51556;50.002;22.014;2022-12-07T14:26:43;18.10;;;8.10;;
65009;SDS011;51556;50.002;22.014;2022-12-07T14:29:20;24.20;;;10.50;;
65009;SDS011;51556;50.002;22.014;2022-12-07T14:31:46;16.80;;;9.10;;
65009;SDS011;51556;50.002;22.014;2022-12-07T14:34:11;13.00;;;8.80;;
65009;SDS011;51556;50.002;22.014;2022-12-07T14:36:37;15.70;;;9.70;;
65009;SDS011;51556;50.002;22.014;2022-12-07T14:39:03;16.90;;;9.90;;
65009;SDS011;51556;50.002;22.014;2022-12-07T14:41:28;17.90;;;9.20;;
65009;SDS011;51556;50.002;22.014;2022-12-07T14:44:14;21.80;;;9.70;;
65009;SDS011;51556;50.002;22.014;2022-12-07T14:46:39;18.20;;;9.00;;
65009;SDS011;51556;50.002;22.014;2022-12-07T14:49:04;14.30;;;8.50;;
65009;SDS011;51556;50.002;22.014;2022-12-07T14:51:30;14.70;;;7.70;;
65009;SDS011;51556;50.002;22.014;2022-12-07T14:53:59;14.00;;;8.40;;
65009;SDS011;51556;50.002;22.014;2022-12-07T14:56:29;15.70;;;9.00;;
65009;SDS011;51556;50.002;22.014;2022-12-07T14:58:54;22.20;;;11.10;;
65009;SDS011;51556;50.002;22.014;2022-12-07T15:01:20;15.60;;;8.90;;
65009;SDS011;51556;50.002;22.014;2022-12-07T15:03:45;14.20;;;8.60;;
65009;SDS011;51556;50.002;22.014;2022-12-07T15:06:13;15.70;;;8.10;;
65009;SDS011;51556;50.002;22.014;2022-12-07T15:08:40;16.30;;;9.10;;
65009;SDS011;51556;50.002;22.014;2022-12-07T15:11:08;19.40;;;9.60;;
65009;SDS011;51556;50.002;22.014;2022-12-07T15:13:37;24.10;;;12.30;;
65009;SDS011;51556;50.002;22.014;2022-12-07T15:16:21;29.90;;;15.00;;
65009;SDS011;51556;50.002;22.014;2022-12-07T15:18:46;32.20;;;16.80;;
65009;SDS011;51556;50.002;22.014;2022-12-07T15:21:15;33.40;;;16.70;;
65009;SDS011;51556;50.002;22.014;2022-12-07T15:23:41;36.70;;;17.50;;
65009;SDS011;51556;50.002;22.014;2022-12-07T15:26:07;40.10;;;18.00;;
65009;SDS011;51556;50.002;22.014;2022-12-07T15:28:33;38.10;;;17.20;;
65009;SDS011;51556;50.002;22.014;2022-12-07T15:30:59;36.30;;;16.70;;
65009;SDS011;51556;50.002;22.014;2022-12-07T15:33:24;26.70;;;12.30;;
65009;SDS011;51556;50.002;22.014;2022-12-07T15:35:50;26.90;;;11.00;;
65009;SDS011;51556;50.002;22.014;2022-12-07T15:38:18;27.40;;;12.40;;
65009;SDS011;51556;50.002;22.014;2022-12-07T15:40:46;22.60;;;10.60;;
65009;SDS011;51556;50.002;22.014;2022-12-07T15:43:12;19.40;;;7.70;;
65009;SDS011;51556;50.002;22.014;2022-12-07T15:45:56;18.10;;;8.90;;
65009;SDS011;51556;50.002;22.014;2022-12-07T15:48:22;15.40;;;7.10;;
65009;SDS011;51556;50.002;22.014;2022-12-07T15:50:48;12.50;;;7.10;;
65009;SDS011;51556;50.002;22.014;2022-12-07T15:53:17;14.40;;;7.10;;
65009;SDS011;51556;50.002;22.014;2022-12-07T15:55:42;10.20;;;6.40;;
65009;SDS011;51556;50.002;22.014;2022-12-07T15:58:10;13.40;;;7.40;;
65009;SDS011;51556;50.002;22.014;2022-12-07T16:00:36;14.10;;;7.10;;
65009;SDS011;51556;50.002;22.014;2022-12-07T16:03:01;12.70;;;7.40;;
65009;SDS011;51556;50.002;22.014;2022-12-07T16:05:26;12.90;;;7.20;;
65009;SDS011;51556;50.002;22.014;2022-12-07T16:07:52;17.50;;;8.90;;
65009;SDS011;51556;50.002;22.014;2022-12-07T16:10:17;16.60;;;10.00;;
65009;SDS011;51556;50.002;22.014;2022-12-07T16:12:43;12.90;;;7.50;;
65009;SDS011;51556;50.002;22.014;2022-12-07T16:15:08;16.00;;;8.50;;
65009;SDS011;51556;50.002;22.014;2022-12-07T16:17:34;13.50;;;8.10;;
65009;SDS011;51556;50.002;22.014;2022-12-07T16:19:59;13.70;;;8.40;;
65009;SDS011;51556;50.002;22.014;2022-12-07T16:22:25;14.70;;;9.30;;
65009;SDS011;51556;50.002;22.014;2022-12-07T16:24:50;14.80;;;9.10;;
65009;SDS011;51556;50.002;22.014;2022-12-07T16:27:15;13.30;;;8.20;;
65009;SDS011;51556;50.002;22.014;2022-12-07T16:29:41;13.20;;;7.50;;
65009;SDS011;51556;50.002;22.014;2022-12-07T16:32:06;13.20;;;8.00;;
65009;SDS011;51556;50.002;22.014;2022-12-07T16:34:32;14.00;;;8.90;;
65009;SDS011;51556;50.002;22.014;2022-12-07T16:36:57;13.80;;;8.90;;
65009;SDS011;51556;50.002;22.014;2022-12-07T16:39:23;15.80;;;9.40;;
65009;SDS011;51556;50.002;22.014;2022-12-07T16:41:49;19.30;;;11.50;;
65009;SDS011;51556;50.002;22.014;2022-12-07T16:44:19;18.50;;;10.00;;
65009;SDS011;51556;50.002;22.014;2022-12-07T16:46:44;20.80;;;10.90;;
65009;SDS011;51556;50.002;22.014;2022-12-07T16:49:13;27.90;;;15.00;;
65009;SDS011;51556;50.002;22.014;2022-12-07T16:51:40;82.30;;;38.00;;
65009;SDS011;51556;50.002;22.014;2022-12-07T16:54:13;22.90;;;13.50;;
65009;SDS011;51556;50.002;22.014;2022-12-07T16:56:41;23.40;;;12.70;;